METAR Data
IDs: Format: Raw Decoded Include TAF

Data at: 1444 UTC 12 Dec 2018

PFKW 121356Z AUTO 17006KT 10SM BKN001 M19/M21 A2920 RMK AO2 SLP889 T11891206 FZRANO
PFKW 121352Z AUTO 18006KT 10SM SCT001 M19/M21 A2920 RMK AO2 FZRANO
PFKW 121256Z AUTO 19003KT 10SM CLR M19/M20 A2921 RMK AO2 SLP890 T11891200 FZRANO
PFKW 121156Z AUTO 20006KT 10SM CLR M17/M19 A2920 RMK AO2 SLP888 T11721189 11094 21178 51012 FZRANO
PFKW 121056Z AUTO 22007KT 10SM CLR M17/M18 A2919 RMK AO2 SLP885 T11721183 FZRANO
PFKW 120956Z AUTO 22006KT 10SM CLR M16/M17 A2918 RMK AO2 SLP880 T11561167 FZRANO
PFKW 120856Z AUTO 24007KT 10SM CLR M12/M14 A2917 RMK AO2 SLP877 T11221139 410611144 53015 FZRANO
PFKW 120756Z AUTO 24007KT 10SM BKN085 M11/M13 A2915 RMK AO2 SLP872 T11061128 FZRANO
PFKW 120656Z AUTO 25009KT 10SM BKN080 M10/M12 A2913 RMK AO2 SLP866 T11001117 FZRANO
PFKW 120556Z AUTO 24009KT 10SM CLR M09/M11 A2912 RMK AO2 SLP862 60000 T10941111 11078 21144 53004 FZRANO
PFKW 120456Z AUTO 25011KT 10SM FEW044 BKN055 OVC085 M08/M10 A2911 RMK AO2 SNE47 SLP858 P0000 T10781100 FZRANO
PFKW 120437Z AUTO 24015KT 8SM -SN SCT025 BKN045 OVC055 M08/M09 A2911 RMK AO2 P0000 FZRANO
PFKW 120425Z AUTO 24014KT 5SM -SN BR FEW016 BKN029 OVC035 M08/M09 A2911 RMK AO2 P0000 FZRANO
PFKW 120415Z AUTO 23012KT 2SM -SN BR FEW009 BKN019 OVC025 M08/M09 A2911 RMK AO2 P0000 FZRANO
PFKW 120408Z AUTO 23013KT 1SM -SN BR SCT009 BKN017 OVC023 M09/M10 A2911 RMK AO2 P0000 FZRANO
PFKW 120356Z AUTO 23013KT 3/4SM -SN BR BKN009 OVC017 M09/M11 A2911 RMK AO2 CIG 008V014 SLP856 P0000 T10941106 FZRANO
PFKW 120344Z AUTO 23011KT 3/4SM -SN BR BKN011 OVC019 M09/M11 A2911 RMK AO2 P0000 FZRANO
PFKW 120331Z AUTO 23013KT 1SM -SN BR SCT013 BKN019 OVC040 M09/M12 A2910 RMK AO2 P0000 FZRANO
PFKW 120328Z AUTO 23013KT 1 1/4SM -SN BR BKN013 BKN027 OVC038 M10/M12 A2910 RMK AO2 P0000 FZRANO
PFKW 120325Z AUTO 23014KT 1 3/4SM -SN BR SCT013 SCT027 OVC038 M10/M12 A2910 RMK AO2 P0000 FZRANO
PFKW 120156Z AUTO 21010KT 10SM FEW065 M14/M16 A2911 RMK AO2 SLP859 T11441156 FZRANO
PFKW 120056Z AUTO 23008KT 10SM CLR M12/M13 A2911 RMK AO2 SLP859 T11171133 FZRANO
PFKW 112356Z AUTO 22009KT 10SM CLR M12/M14 A2911 RMK AO2 SLP859 60000 T11221144 11078 21128 50004 FZRANO
PFKW 112256Z AUTO 21009KT 10SM CLR M11/M14 A2912 RMK AO2 SNE33 SLP860 P0000 T11111144 FZRANO
PFKW 112156Z AUTO 23009KT 9SM -SN CLR M11/M13 A2911 RMK AO2 SNB51 SLP858 P0000 T11061128 FZRANO
PFKW 112056Z AUTO 24009KT 10SM CLR M10/M12 A2910 RMK AO2 SLP855 T11001122 51022 FZRANO
PFKW 111956Z AUTO 25010KT 10SM CLR M11/M12 A2909 RMK AO2 SLP850 T11061122 FZRANO
PFKW 111856Z AUTO 25010KT 10SM CLR M09/M12 A2907 RMK AO2 SLP843 T10941122 FZRANO
PFKW 111756Z AUTO 27011G19KT 10SM CLR M08/M11 A2904 RMK AO2 SLP833 60000 T10781106 11061 21078 53022 FZRANO
PFKW 111656Z AUTO 29016G20KT 10SM OVC047 M07/M09 A2901 RMK AO2 SNE37 SLP825 P0000 T10671089 FZRANO
PFKW 111613Z AUTO 27012KT 9SM -SN SCT021 SCT029 OVC038 M07/M09 A2900 RMK AO2 P0000 FZRANO
PFKW 111525Z AUTO 26013KT 9SM -SN SCT028 BKN036 OVC095 M07/M09 A2898 RMK AO2 P0000 FZRANO
PFKW 111515Z AUTO 26011KT 9SM -SN BKN027 BKN034 OVC095 M07/M09 A2898 RMK AO2 P0000 FZRANO
PFKW 111505Z AUTO 26011KT 9SM -SN BKN031 OVC035 M07/M09 A2898 RMK AO2 P0000 FZRANO
PFKW 111456Z AUTO 27012KT 7SM -SN BKN029 OVC035 M07/M09 A2897 RMK AO2 SLP811 P0000 60000 T10721089 51028 FZRANO
PFKW 111347Z AUTO 27013G19KT 3SM -SN BR FEW010 SCT015 OVC031 M07/M08 A2895 RMK AO2 P0000 FZRANO
PFKW 111256Z AUTO 29014G20KT 2SM -SN BR FEW010 OVC024 M07/M08 A2893 RMK AO2 SLP796 P0000 T10721083 FZRANO
PFKW 111156Z AUTO 28014KT 1 1/2SM -SN BR OVC016 M07/M08 A2889 RMK AO2 SLP783 P0000 60000 70001 T10721083 11061 21072 51033 FZRANO
PFKW 111134Z AUTO 28011G21KT 1 3/4SM -SN BR OVC018 M07/M08 A2888 RMK AO2 P0000 FZRANO
PFKW 111056Z AUTO 29016G22KT 1 1/2SM -SN BR OVC016 M07/M08 A2886 RMK AO2 SLP774 P0000 T10721083 FZRANO
PFKW 111042Z AUTO 29015G21KT 1 1/2SM -SN BR OVC016 M07/M08 A2886 RMK AO2 P0000 FZRANO
PFKW 110956Z AUTO 30015G22KT 1 1/4SM -SN BR OVC012 M07/M08 A2883 RMK AO2 SLP762 P0000 T10721083 FZRANO
PFKW 110939Z AUTO 30013G20KT 1 1/4SM -SN BR OVC012 M07/M08 A2882 RMK AO2 P0000 FZRANO
PFKW 110918Z AUTO 30016KT 1SM -SN BR OVC010 M07/M08 A2880 RMK AO2 CIG 009V013 P0000 FZRANO
PFKW 110856Z AUTO 30014G22KT 1 1/2SM -SN BR OVC014 M07/M08 A2879 RMK AO2 SLP750 P0000 60000 T10721083 410331078 51027 FZRANO
PFKW 110844Z AUTO 30014G20KT 1 1/2SM -SN BR OVC014 M07/M08 A2878 RMK AO2 P0000 FZRANO
PFKW 110756Z AUTO 31015G19KT 1 1/2SM -SN BR BKN019 OVC027 M07/M08 A2875 RMK AO2 SLP738 P0000 T10721083 FZRANO
PFKW 110747Z AUTO 31014KT 2SM -SN BR FEW009 BKN021 OVC027 M07/M08 A2875 RMK AO2 P0000 FZRANO
PFKW 110721Z AUTO 31012G20KT 3SM -SN BR FEW009 BKN023 OVC039 M07/M08 A2873 RMK AO2 P0000 FZRANO
PFKW 110709Z AUTO 31015G24KT 2 1/2SM -SN BR FEW008 BKN023 OVC041 M07/M08 A2872 RMK AO2 P0000 FZRANO
PFKW 110656Z AUTO 31017G22KT 2SM -SN BR OVC023 M07/M08 A2871 RMK AO2 SLP724 P0000 T10671078 FZRANO
PFKW 110617Z AUTO 31013G18KT 2SM -SN BR OVC023 M06/M07 A2870 RMK AO2 P0000 FZRANO
PFKW 110556Z AUTO 32013G19KT 1 1/2SM -SN BR OVC019 M06/M07 A2869 RMK AO2 SLP715 P0000 60000 T10611072 11039 21061 53019 FZRANO
PFKW 110456Z AUTO 32016G20KT 2SM -SN BR OVC023 M06/M07 A2866 RMK AO2 SLP707 P0000 T10611072 FZRANO
PFKW 110440Z AUTO 32015G19KT 2SM -SN BR OVC023 M06/M07 A2866 RMK AO2 P0000 FZRANO
PFKW 110356Z AUTO 33013KT 1 1/2SM -SN BR OVC015 M06/M07 A2865 RMK AO2 SLP702 P0000 T10611067 FZRANO
PFKW 110323Z AUTO 32015KT 1 3/4SM -SN BR BKN015 OVC020 M06/M07 A2864 RMK AO2 P0000 FZRANO
PFKW 110256Z AUTO 32015KT 2SM -SN BR OVC018 M06/M06 A2863 RMK AO2 SLP696 P0000 60000 T10561061 53002 FZRANO